ADDS TAF Board (Experimental) INFO Settings
IDs: Format: Expanded Condensed

KBOS - Boston/Logan Intl, MA, US

Issued at 2326 UTC 25 Jul 2016
Updated at 0040 UTC 26 Jul 2016
Time2354Z 26/01Z 26/02Z 26/03Z 26/04Z 26/05Z 26/06Z 26/07Z 26/08Z 26/09Z 26/10Z 26/11Z 26/12Z 26/13Z
Type OBS PRVL PRVL PRVL PRVL PRVL PRVL PRVL PRVL PRVL PRVL PRVL PRVL PRVL
VIS 10 >6 >6 >6 >6 >6 >6 >6 >6 >6 >6 >6 >6 >6
CIG 300 150 150 150 150 -- -- -- -- -- -- -- -- --
Cover BKN BKN BKN BKN BKN SCT SCT SCT SCT SCT FEW FEW FEW FEW
FltCat VFR VFR VFR VFR VFR VFR VFR VFR VFR VFR VFR VFR VFR VFR
WX -- VCSH -- -- -- -- -- -- -- -- -- -- -- --
WDir 190 200 220 220 220 240 240 240 240 240 270 270 270 270
WSpd 12 12 6 6 6 4 4 4 4 4 7 7 7 7
WGst -- -- -- -- -- -- -- -- -- -- -- -- -- --
R04/22
XWnd -2 -0 2 2 2 3 3 3 3 3 7 7 7 7
HWnd -12 -12 -6 -6 -6 -3 -3 -3 -3 -3 -2 -2 -2 -2
R09/27
XWnd -11 -10 -4 -4 -4 -1 -1 -1 -1 -1 2 2 2 2
HWnd -5 -7 -5 -5 -5 -4 -4 -4 -4 -4 -7 -7 -7 -7
R14/32
XWnd -11 -12 -6 -6 -6 -4 -4 -4 -4 -4 -4 -4 -4 -4
HWnd 5 3 -1 -1 -1 -2 -2 -2 -2 -2 -6 -6 -6 -6
R15/33
XWnd -10 -11 -6 -6 -6 -4 -4 -4 -4 -4 -5 -5 -5 -5
HWnd 7 5 1 1 1 -1 -1 -1 -1 -1 -5 -5 -5 -5

Raw TAF
KBOS 252326Z 2600/2706 20012KT P6SM VCSH SCT060 BKN150
  FM260200 22006KT P6SM BKN150 BKN250
  FM260500 24004KT P6SM SCT250
  FM261000 27007KT P6SM FEW250
  FM262300 31007KT P6SM FEW070


Raw METAR
KBOS 252354Z 19012KT 10SM FEW055 SCT130 SCT220 BKN300 27/19 A2978 RMK AO2 SLP084 T02670189 10333 20261 53004
KBOS 252254Z 20016KT 10SM FEW060 SCT130 SCT220 BKN300 28/18 A2978 RMK AO2 SLP083 T02830183
KBOS 252154Z 19015KT 10SM FEW055 SCT130 BKN220 OVC300 30/19 A2977 RMK AO2 SLP079 T03000189

METAR Board
Radar Display
Forecast Discussion

TAF Board Legend

Potential Impact
Threat None Slight Moderate High
Visibility (sm) ≥5.1 5.1>X≥3 3>X≥1 <1
Ceiling (100 ft) ≥30.1 30.1>X≥10 10>X≥5 <5
Wind Speed (kt) <10 10≤X<20 20≤X<30 ≥30
Wind Gust (kt) <15 15≤X<25 25≤X<35 ≥35
Weather No Wx Reported VCTS,-TS,-FZRA,SN TS,FZRA +TS,+FZRA,+SN